Time;durP1;ratioP1;P1;durP2;ratioP2;P2;SDS_P1;SDS_P2;PMS_P1;PMS_P2;Temp;Humidity;BMP_temperature;BMP_pressure;BME280_temperature;BME280_humidity;BME280_pressure;Samples;Min_cycle;Max_cycle;Signal;HPM_P1;HPM_P2
2023/01/18 00:01:00;;;;;;;12.18;7.85;;;;;;;;;;5094786;28;20055;-89
2023/01/18 00:03:27;;;;;;;16.88;8.82;;;;;;;;;;5094719;28;20587;-89
2023/01/18 00:06:00;;;;;;;15.30;8.82;;;;;;;;;;5094522;28;20562;-89
2023/01/18 00:08:28;;;;;;;15.70;8.40;;;;;;;;;;5094512;28;20066;-89
2023/01/18 00:11:03;;;;;;;16.13;8.70;;;;;;;;;;5093456;28;20048;-89
2023/01/18 00:13:30;;;;;;;13.98;9.00;;;;;;;;;;5093180;28;20048;-89
2023/01/18 00:16:01;;;;;;;15.90;7.95;;;;;;;;;;5093225;28;20052;-89
2023/01/18 00:18:28;;;;;;;14.50;7.30;;;;;;;;;;5093568;28;20545;-89
2023/01/18 00:20:59;;;;;;;13.45;7.95;;;;;;;;;;5094272;28;20048;-89
2023/01/18 00:23:26;;;;;;;12.43;7.68;;;;;;;;;;5093332;28;20044;-90
2023/01/18 00:25:53;;;;;;;13.30;7.22;;;;;;;;;;5094273;28;20048;-90
2023/01/18 00:28:21;;;;;;;15.38;7.90;;;;;;;;;;5093230;28;20047;-89
2023/01/18 00:30:48;;;;;;;14.55;8.50;;;;;;;;;;5093586;28;20079;-89
2023/01/18 00:33:16;;;;;;;12.98;8.10;;;;;;;;;;5094276;28;20048;-89
2023/01/18 00:35:43;;;;;;;12.48;7.80;;;;;;;;;;5093010;28;20052;-89
2023/01/18 00:38:11;;;;;;;15.77;7.68;;;;;;;;;;5093139;28;20065;-89
2023/01/18 00:40:39;;;;;;;12.05;7.43;;;;;;;;;;5092764;28;20066;-89
2023/01/18 00:45:52;;;;;;;13.45;8.20;;;;;;;;;;5093991;28;20476;-89
2023/01/18 00:48:19;;;;;;;14.25;8.38;;;;;;;;;;5093819;28;20408;-89
2023/01/18 00:50:46;;;;;;;11.32;7.53;;;;;;;;;;5093948;28;20416;-89
2023/01/18 00:53:13;;;;;;;13.48;7.18;;;;;;;;;;5093031;28;20435;-89
2023/01/18 00:55:40;;;;;;;14.93;7.57;;;;;;;;;;5093776;28;20058;-89
2023/01/18 00:58:08;;;;;;;14.80;7.70;;;;;;;;;;5093901;28;20044;-89
2023/01/18 01:00:35;;;;;;;11.93;7.50;;;;;;;;;;5092215;28;20052;-89
2023/01/18 01:03:02;;;;;;;16.35;7.40;;;;;;;;;;5092012;28;20048;-89
2023/01/18 01:08:16;;;;;;;11.57;7.60;;;;;;;;;;5093683;28;20050;-89
2023/01/18 01:10:45;;;;;;;12.80;7.35;;;;;;;;;;5092714;28;20059;-89
2023/01/18 01:27:02;;;;;;;11.15;7.13;;;;;;;;;;5093539;28;20083;-89
2023/01/18 01:29:29;;;;;;;12.13;7.57;;;;;;;;;;5092564;28;20048;-89
2023/01/18 01:31:57;;;;;;;13.75;7.32;;;;;;;;;;5092306;28;20055;-89
2023/01/18 01:34:24;;;;;;;14.57;7.68;;;;;;;;;;5093164;28;20138;-90
2023/01/18 01:36:51;;;;;;;12.10;7.18;;;;;;;;;;5092321;28;20142;-90
2023/01/18 01:39:20;;;;;;;14.55;7.53;;;;;;;;;;5092226;28;20381;-89
2023/01/18 01:41:48;;;;;;;11.52;6.95;;;;;;;;;;5092481;28;20062;-89
2023/01/18 01:44:24;;;;;;;13.15;7.70;;;;;;;;;;5093113;28;20499;-89
2023/01/18 01:46:51;;;;;;;12.00;7.15;;;;;;;;;;5093203;28;20052;-89
2023/01/18 01:49:22;;;;;;;13.73;6.80;;;;;;;;;;5092731;28;20123;-89
2023/01/18 01:51:54;;;;;;;13.57;6.63;;;;;;;;;;5094945;28;20044;-89
2023/01/18 01:54:25;;;;;;;12.82;7.10;;;;;;;;;;5098149;28;20485;-89
2023/01/18 01:56:54;;;;;;;12.63;7.60;;;;;;;;;;5100599;28;20048;-90
2023/01/18 01:59:24;;;;;;;12.60;7.50;;;;;;;;;;5095906;28;20496;-89
2023/01/18 02:01:51;;;;;;;16.10;8.05;;;;;;;;;;5096073;28;20046;-89
2023/01/18 02:04:18;;;;;;;13.15;7.75;;;;;;;;;;5095909;28;20135;-89
2023/01/18 02:06:45;;;;;;;12.90;7.60;;;;;;;;;;5096918;28;20054;-89
2023/01/18 02:09:14;;;;;;;14.40;7.75;;;;;;;;;;5095974;28;20067;-89
2023/01/18 02:11:42;;;;;;;12.43;7.38;;;;;;;;;;5096689;28;20087;-89
2023/01/18 02:14:15;;;;;;;14.98;8.10;;;;;;;;;;5096553;28;20048;-89
2023/01/18 02:16:42;;;;;;;11.75;7.00;;;;;;;;;;5096523;28;20100;-89
2023/01/18 02:19:17;;;;;;;16.33;7.85;;;;;;;;;;5096515;28;20052;-90
2023/01/18 02:21:46;;;;;;;12.48;7.18;;;;;;;;;;5096700;28;20058;-89
2023/01/18 02:24:44;;;;;;;12.30;7.13;;;;;;;;;;5095580;28;20492;-89
2023/01/18 02:27:11;;;;;;;10.77;6.88;;;;;;;;;;5095440;28;20411;-89
2023/01/18 02:29:44;;;;;;;12.55;6.70;;;;;;;;;;5096740;28;20554;-89
2023/01/18 02:32:11;;;;;;;13.45;7.65;;;;;;;;;;5096386;28;20051;-90
2023/01/18 02:34:38;;;;;;;11.80;6.90;;;;;;;;;;5095477;28;20052;-90
2023/01/18 02:37:24;;;;;;;8.63;6.13;;;;;;;;;;5096240;28;20135;-89
2023/01/18 02:40:00;;;;;;;12.48;7.35;;;;;;;;;;5095405;28;20044;-89
2023/01/18 02:48:09;;;;;;;13.60;7.70;;;;;;;;;;5096190;28;20048;-90
2023/01/18 02:50:37;;;;;;;12.57;7.22;;;;;;;;;;5096035;28;20055;-90
2023/01/18 02:53:04;;;;;;;13.77;7.97;;;;;;;;;;5095058;28;20393;-89
2023/01/18 02:55:34;;;;;;;15.38;8.93;;;;;;;;;;5094586;28;20408;-89
2023/01/18 02:58:06;;;;;;;17.58;9.23;;;;;;;;;;5094948;28;20503;-89
2023/01/18 03:00:36;;;;;;;15.30;8.88;;;;;;;;;;5095931;28;20052;-90
2023/01/18 03:03:05;;;;;;;15.93;9.25;;;;;;;;;;5094805;28;20071;-90
2023/01/18 03:05:33;;;;;;;14.10;8.82;;;;;;;;;;5094614;28;20145;-90
2023/01/18 03:08:08;;;;;;;17.95;9.35;;;;;;;;;;5094606;28;20056;-90
2023/01/18 03:10:38;;;;;;;12.70;8.15;;;;;;;;;;5094760;28;20055;-90
2023/01/18 03:13:14;;;;;;;14.90;9.15;;;;;;;;;;5095485;28;20052;-90
2023/01/18 03:15:48;;;;;;;16.85;8.55;;;;;;;;;;5094482;28;20063;-90
2023/01/18 03:18:23;;;;;;;13.85;8.65;;;;;;;;;;5094310;28;20048;-89
2023/01/18 03:20:54;;;;;;;17.08;8.98;;;;;;;;;;5095457;28;20052;-89
2023/01/18 03:23:39;;;;;;;13.60;8.18;;;;;;;;;;5094365;28;20109;-89
2023/01/18 03:26:08;;;;;;;16.52;8.05;;;;;;;;;;5094153;28;20534;-89
2023/01/18 03:34:28;;;;;;;14.70;8.30;;;;;;;;;;5095018;28;20048;-90
2023/01/18 03:36:57;;;;;;;13.43;8.23;;;;;;;;;;5093651;28;20504;-89
2023/01/18 03:39:29;;;;;;;13.75;8.43;;;;;;;;;;5093861;28;20074;-89
2023/01/18 03:42:09;;;;;;;11.90;8.18;;;;;;;;;;5094032;28;20058;-90
2023/01/18 03:44:39;;;;;;;15.43;8.57;;;;;;;;;;5095059;28;20080;-90
2023/01/18 03:47:06;;;;;;;14.07;8.60;;;;;;;;;;5094093;28;20127;-89
2023/01/18 03:49:34;;;;;;;12.43;8.05;;;;;;;;;;5095067;28;20468;-90
2023/01/18 03:52:01;;;;;;;14.15;8.30;;;;;;;;;;5094659;28;20044;-89
2023/01/18 03:54:28;;;;;;;18.10;8.95;;;;;;;;;;5094816;28;20044;-89
2023/01/18 03:57:08;;;;;;;12.15;7.65;;;;;;;;;;5093466;28;20496;-89
2023/01/18 03:59:37;;;;;;;15.00;8.38;;;;;;;;;;5094054;28;20123;-90
2023/01/18 04:02:06;;;;;;;13.45;8.13;;;;;;;;;;5093326;28;20137;-89
2023/01/18 04:04:33;;;;;;;13.95;7.00;;;;;;;;;;5093520;28;20048;-89
2023/01/18 04:07:00;;;;;;;14.45;7.25;;;;;;;;;;5093405;28;20127;-89
2023/01/18 04:09:28;;;;;;;14.02;7.03;;;;;;;;;;5093773;28;20054;-89
2023/01/18 04:11:55;;;;;;;12.35;7.55;;;;;;;;;;5093612;28;20464;-89
2023/01/18 04:14:22;;;;;;;15.05;7.63;;;;;;;;;;5093693;28;20048;-89
2023/01/18 04:16:49;;;;;;;11.32;7.65;;;;;;;;;;5093084;28;20080;-89
2023/01/18 04:19:17;;;;;;;10.63;7.40;;;;;;;;;;5094129;28;20048;-89
2023/01/18 04:21:44;;;;;;;12.52;7.90;;;;;;;;;;5093268;28;20048;-90
2023/01/18 04:24:12;;;;;;;15.10;8.15;;;;;;;;;;5093203;28;20142;-90
2023/01/18 04:26:39;;;;;;;10.52;7.30;;;;;;;;;;5093222;28;20553;-89
2023/01/18 04:29:07;;;;;;;15.98;8.63;;;;;;;;;;5093129;28;20048;-90
2023/01/18 04:31:35;;;;;;;13.25;8.25;;;;;;;;;;5094244;28;20052;-89
2023/01/18 04:34:02;;;;;;;14.32;9.43;;;;;;;;;;5093570;28;20087;-90
2023/01/18 04:36:29;;;;;;;13.13;8.40;;;;;;;;;;5093142;28;20052;-90
2023/01/18 04:38:57;;;;;;;14.38;8.77;;;;;;;;;;5093484;28;20135;-90
2023/01/18 04:41:24;;;;;;;11.52;8.20;;;;;;;;;;5093465;28;20364;-89
2023/01/18 04:43:51;;;;;;;11.82;7.78;;;;;;;;;;5092971;28;20044;-89
2023/01/18 04:46:18;;;;;;;12.10;8.05;;;;;;;;;;5091584;28;20055;-89
2023/01/18 04:48:49;;;;;;;12.90;8.70;;;;;;;;;;5093087;28;20052;-89
2023/01/18 04:51:17;;;;;;;11.05;7.88;;;;;;;;;;5093352;28;20109;-89
2023/01/18 04:53:44;;;;;;;13.20;8.82;;;;;;;;;;5093428;28;20048;-90
2023/01/18 04:56:11;;;;;;;12.18;7.28;;;;;;;;;;5092699;28;20044;-90
2023/01/18 04:58:38;;;;;;;11.43;7.75;;;;;;;;;;5092589;28;20377;-89
2023/01/18 05:01:07;;;;;;;8.82;7.10;;;;;;;;;;5092855;28;20043;-90
2023/01/18 05:03:37;;;;;;;11.07;7.40;;;;;;;;;;5093131;28;20506;-90
2023/01/18 05:06:05;;;;;;;8.43;7.50;;;;;;;;;;5092579;28;20052;-89
2023/01/18 05:08:33;;;;;;;11.88;7.78;;;;;;;;;;5092897;28;20518;-89
2023/01/18 05:11:07;;;;;;;12.90;7.13;;;;;;;;;;5092607;28;20052;-90
2023/01/18 05:13:34;;;;;;;11.68;7.63;;;;;;;;;;5092670;28;20058;-89
2023/01/18 05:16:02;;;;;;;10.02;6.78;;;;;;;;;;5092150;28;20056;-89
2023/01/18 05:18:32;;;;;;;12.32;7.20;;;;;;;;;;5092991;28;20048;-90
2023/01/18 05:20:59;;;;;;;11.27;7.15;;;;;;;;;;5092639;28;20510;-89
2023/01/18 05:23:26;;;;;;;9.38;7.10;;;;;;;;;;5092512;28;20058;-89
2023/01/18 05:25:54;;;;;;;7.47;6.28;;;;;;;;;;5093294;28;20059;-88
2023/01/18 05:28:22;;;;;;;13.60;7.07;;;;;;;;;;5096777;28;20054;-88
2023/01/18 05:30:50;;;;;;;12.38;7.32;;;;;;;;;;5096940;28;20048;-88
2023/01/18 05:33:18;;;;;;;9.98;7.20;;;;;;;;;;5096688;28;20502;-87
2023/01/18 05:35:52;;;;;;;12.90;7.43;;;;;;;;;;5096510;28;20412;-88
2023/01/18 05:38:20;;;;;;;11.10;7.68;;;;;;;;;;5096748;28;20052;-88
2023/01/18 05:40:48;;;;;;;9.68;7.15;;;;;;;;;;5096497;28;20078;-88
2023/01/18 05:43:16;;;;;;;10.80;7.60;;;;;;;;;;5096629;28;20135;-88
2023/01/18 05:45:43;;;;;;;10.35;7.60;;;;;;;;;;5096242;28;20078;-89
2023/01/18 05:48:11;;;;;;;14.23;7.55;;;;;;;;;;5096302;28;20127;-88
2023/01/18 05:50:39;;;;;;;10.95;7.30;;;;;;;;;;5096288;28;20059;-88
2023/01/18 05:53:06;;;;;;;13.10;7.43;;;;;;;;;;5096337;28;20048;-87
2023/01/18 05:55:33;;;;;;;8.80;6.63;;;;;;;;;;5095999;28;20097;-88
2023/01/18 05:58:00;;;;;;;12.02;8.05;;;;;;;;;;5097072;28;20048;-88
2023/01/18 06:00:28;;;;;;;12.38;8.13;;;;;;;;;;5096236;28;20051;-88
2023/01/18 06:02:55;;;;;;;12.38;8.38;;;;;;;;;;5096403;28;20054;-87
2023/01/18 06:05:24;;;;;;;13.82;9.25;;;;;;;;;;5095788;28;20048;-87
2023/01/18 06:07:51;;;;;;;13.80;9.05;;;;;;;;;;5096054;28;20136;-88
2023/01/18 06:10:18;;;;;;;22.42;14.50;;;;;;;;;;5096365;28;20481;-87
2023/01/18 06:12:46;;;;;;;15.13;11.00;;;;;;;;;;5096177;28;20054;-88
2023/01/18 06:15:14;;;;;;;11.45;9.00;;;;;;;;;;5095964;28;20143;-87
2023/01/18 06:17:43;;;;;;;13.32;8.90;;;;;;;;;;5095604;28;20497;-88
2023/01/18 06:20:11;;;;;;;15.25;11.60;;;;;;;;;;5095762;28;20120;-88
2023/01/18 06:22:39;;;;;;;16.35;11.85;;;;;;;;;;5095477;28;20044;-88
2023/01/18 06:25:08;;;;;;;12.88;10.20;;;;;;;;;;5095836;28;20044;-88
2023/01/18 06:27:36;;;;;;;14.88;10.27;;;;;;;;;;5095522;28;20067;-88
2023/01/18 06:30:05;;;;;;;15.05;10.38;;;;;;;;;;5095601;28;20425;-88
2023/01/18 06:32:32;;;;;;;15.63;10.45;;;;;;;;;;5095529;28;20101;-87
2023/01/18 06:34:59;;;;;;;29.83;18.08;;;;;;;;;;5095653;28;20051;-86
2023/01/18 06:37:26;;;;;;;14.63;10.65;;;;;;;;;;5094640;28;20048;-87
2023/01/18 06:39:53;;;;;;;19.88;11.27;;;;;;;;;;5095173;28;20044;-88
2023/01/18 06:42:21;;;;;;;13.73;10.68;;;;;;;;;;5095277;28;20044;-87
2023/01/18 06:44:48;;;;;;;18.65;11.68;;;;;;;;;;5095261;28;20048;-88
2023/01/18 06:47:18;;;;;;;15.65;11.50;;;;;;;;;;5096246;28;20484;-88
2023/01/18 06:49:49;;;;;;;16.80;12.63;;;;;;;;;;5095328;28;20052;-88
2023/01/18 06:52:16;;;;;;;18.48;13.57;;;;;;;;;;5095210;28;20051;-88
2023/01/18 06:54:44;;;;;;;17.95;13.80;;;;;;;;;;5095175;28;20135;-88
2023/01/18 06:57:11;;;;;;;17.50;12.90;;;;;;;;;;5094753;28;20055;-88
2023/01/18 06:59:39;;;;;;;19.95;12.32;;;;;;;;;;5095882;28;20048;-88
2023/01/18 07:02:06;;;;;;;18.27;12.52;;;;;;;;;;5094724;28;20078;-88
2023/01/18 07:04:42;;;;;;;16.77;11.93;;;;;;;;;;5095478;28;20454;-87
2023/01/18 07:07:10;;;;;;;22.40;14.30;;;;;;;;;;5095496;28;20442;-88
2023/01/18 07:09:37;;;;;;;17.05;12.38;;;;;;;;;;5094653;28;20131;-88
2023/01/18 07:12:04;;;;;;;18.50;12.02;;;;;;;;;;5094778;28;20056;-88
2023/01/18 07:14:31;;;;;;;20.48;12.38;;;;;;;;;;5094829;28;20101;-88
2023/01/18 07:16:59;;;;;;;27.75;17.45;;;;;;;;;;5094201;28;20056;-88
2023/01/18 07:19:26;;;;;;;21.27;13.98;;;;;;;;;;5094576;28;20079;-88
2023/01/18 07:21:53;;;;;;;35.58;27.90;;;;;;;;;;5094523;28;20056;-87
2023/01/18 07:24:21;;;;;;;21.02;15.25;;;;;;;;;;5094387;28;20039;-88
2023/01/18 07:26:48;;;;;;;23.67;15.80;;;;;;;;;;5094300;28;20056;-88
2023/01/18 07:29:15;;;;;;;20.70;14.13;;;;;;;;;;5094306;28;20127;-88
2023/01/18 07:31:42;;;;;;;23.90;14.18;;;;;;;;;;5094415;28;20415;-88
2023/01/18 07:34:10;;;;;;;23.77;16.05;;;;;;;;;;5094313;28;20048;-88
2023/01/18 07:36:38;;;;;;;22.65;15.38;;;;;;;;;;5094182;28;20048;-88
2023/01/18 07:39:05;;;;;;;23.00;17.85;;;;;;;;;;5093927;28;20048;-88
2023/01/18 07:41:32;;;;;;;23.17;14.30;;;;;;;;;;5094338;28;20056;-87
2023/01/18 07:44:00;;;;;;;23.75;15.73;;;;;;;;;;5093852;28;20050;-88
2023/01/18 07:46:30;;;;;;;27.58;17.42;;;;;;;;;;5094085;28;20488;-88
2023/01/18 07:48:57;;;;;;;34.95;24.58;;;;;;;;;;5093445;28;20051;-88
2023/01/18 07:51:24;;;;;;;22.73;15.27;;;;;;;;;;5094058;28;20056;-88
2023/01/18 07:53:55;;;;;;;25.15;16.50;;;;;;;;;;5094022;28;20052;-88
2023/01/18 07:56:24;;;;;;;23.08;16.63;;;;;;;;;;5093612;28;20500;-88
2023/01/18 07:58:51;;;;;;;31.25;21.55;;;;;;;;;;5094107;28;20051;-88
2023/01/18 08:01:19;;;;;;;32.97;22.52;;;;;;;;;;5094183;28;20050;-88
2023/01/18 08:03:48;;;;;;;22.77;16.77;;;;;;;;;;5093921;28;20047;-88
2023/01/18 08:06:18;;;;;;;32.78;21.65;;;;;;;;;;5093863;28;20142;-88
2023/01/18 08:08:46;;;;;;;38.80;27.48;;;;;;;;;;5093823;28;20093;-88
2023/01/18 08:11:13;;;;;;;25.15;18.15;;;;;;;;;;5094071;28;20067;-88
2023/01/18 08:13:40;;;;;;;22.98;14.82;;;;;;;;;;5093511;28;20044;-88
2023/01/18 08:16:09;;;;;;;23.17;15.35;;;;;;;;;;5093202;28;20052;-89
2023/01/18 08:18:37;;;;;;;27.58;17.67;;;;;;;;;;5093602;28;20050;-88
2023/01/18 08:21:04;;;;;;;20.27;14.57;;;;;;;;;;5093381;28;20051;-88
2023/01/18 08:23:31;;;;;;;25.40;15.20;;;;;;;;;;5093671;28;20048;-88
2023/01/18 08:26:02;;;;;;;23.05;15.25;;;;;;;;;;5093262;28;20489;-88
2023/01/18 08:28:29;;;;;;;22.60;16.15;;;;;;;;;;5093528;28;20568;-88
2023/01/18 08:31:05;;;;;;;20.10;12.93;;;;;;;;;;5093170;28;20507;-88
2023/01/18 08:33:35;;;;;;;17.90;12.95;;;;;;;;;;5093275;28;20061;-88
2023/01/18 08:36:02;;;;;;;21.13;15.15;;;;;;;;;;5093041;28;20051;-88
2023/01/18 08:38:29;;;;;;;20.60;13.38;;;;;;;;;;5093317;28;20123;-88
2023/01/18 08:40:57;;;;;;;18.15;12.40;;;;;;;;;;5093099;28;20055;-88
2023/01/18 08:43:24;;;;;;;15.52;12.20;;;;;;;;;;5092666;28;20515;-89
2023/01/18 08:45:51;;;;;;;17.10;11.32;;;;;;;;;;5093170;28;20058;-88
2023/01/18 08:48:18;;;;;;;13.50;10.82;;;;;;;;;;5092990;28;20059;-88
2023/01/18 08:50:45;;;;;;;13.10;10.73;;;;;;;;;;5092693;28;20048;-88
2023/01/18 08:53:13;;;;;;;17.70;11.57;;;;;;;;;;5092857;28;20565;-88
2023/01/18 08:55:40;;;;;;;17.25;11.65;;;;;;;;;;5092471;28;20062;-89
2023/01/18 08:58:07;;;;;;;29.42;12.05;;;;;;;;;;5092456;28;20052;-89
2023/01/18 09:00:34;;;;;;;21.05;11.82;;;;;;;;;;5092583;28;20407;-89
2023/01/18 09:03:02;;;;;;;16.48;11.57;;;;;;;;;;5092651;28;20079;-89
2023/01/18 09:05:30;;;;;;;16.88;11.02;;;;;;;;;;5092734;28;20048;-88
2023/01/18 09:07:57;;;;;;;14.10;10.93;;;;;;;;;;5092492;28;20055;-89
2023/01/18 09:10:25;;;;;;;18.13;11.43;;;;;;;;;;5092873;28;20070;-89
2023/01/18 09:12:53;;;;;;;17.15;12.10;;;;;;;;;;5092648;28;20169;-89
2023/01/18 09:15:21;;;;;;;17.95;12.38;;;;;;;;;;5092581;28;20048;-89
2023/01/18 09:17:48;;;;;;;19.40;12.13;;;;;;;;;;5091890;28;20048;-89
2023/01/18 09:20:15;;;;;;;18.88;12.23;;;;;;;;;;5092856;28;20044;-89
2023/01/18 09:22:46;;;;;;;20.85;13.00;;;;;;;;;;5092246;28;20076;-89
2023/01/18 09:25:14;;;;;;;18.38;12.48;;;;;;;;;;5092443;28;20044;-89
2023/01/18 09:27:41;;;;;;;18.08;12.88;;;;;;;;;;5092647;28;20094;-89
2023/01/18 09:30:09;;;;;;;28.10;14.00;;;;;;;;;;5092858;28;20040;-90
2023/01/18 09:32:36;;;;;;;18.25;12.80;;;;;;;;;;5092778;28;20052;-90
2023/01/18 09:35:04;;;;;;;20.08;12.63;;;;;;;;;;5092383;28;20077;-90
2023/01/18 09:37:32;;;;;;;23.88;13.77;;;;;;;;;;5092249;28;20055;-90
2023/01/18 09:39:59;;;;;;;22.67;13.90;;;;;;;;;;5092596;28;20058;-89
2023/01/18 09:42:37;;;;;;;20.60;13.20;;;;;;;;;;5092232;28;20052;-89
2023/01/18 09:45:10;;;;;;;22.50;13.95;;;;;;;;;;5092549;28;20044;-89
2023/01/18 09:47:45;;;;;;;20.77;14.07;;;;;;;;;;5092447;28;20052;-89
2023/01/18 09:50:12;;;;;;;19.63;13.77;;;;;;;;;;5092428;28;20052;-89
2023/01/18 09:52:56;;;;;;;20.05;13.32;;;;;;;;;;5092589;28;20504;-91
2023/01/18 09:55:26;;;;;;;23.92;13.93;;;;;;;;;;5092488;28;20048;-89
2023/01/18 09:58:05;;;;;;;25.70;14.77;;;;;;;;;;5092451;28;20052;-90
2023/01/18 10:00:34;;;;;;;19.75;13.63;;;;;;;;;;5092964;28;20048;-89
2023/01/18 10:03:09;;;;;;;18.38;12.90;;;;;;;;;;5092600;28;20044;-89
2023/01/18 10:05:40;;;;;;;22.02;14.20;;;;;;;;;;5094223;28;20054;-90
2023/01/18 10:08:13;;;;;;;18.60;14.13;;;;;;;;;;5094694;28;20406;-89
2023/01/18 10:10:50;;;;;;;18.85;13.90;;;;;;;;;;5096207;28;20052;-90
2023/01/18 10:13:20;;;;;;;20.77;14.32;;;;;;;;;;5097214;28;20071;-91
2023/01/18 10:15:48;;;;;;;19.38;13.82;;;;;;;;;;5095879;28;20056;-90
2023/01/18 10:18:16;;;;;;;18.55;14.48;;;;;;;;;;5095832;28;20131;-89
2023/01/18 10:20:47;;;;;;;17.77;13.57;;;;;;;;;;5095968;28;20079;-90
2023/01/18 10:23:27;;;;;;;23.08;15.98;;;;;;;;;;5095821;28;20052;-91
2023/01/18 10:26:06;;;;;;;21.30;15.93;;;;;;;;;;5096298;28;20135;-90
2023/01/18 10:28:49;;;;;;;19.83;14.50;;;;;;;;;;5095802;28;20134;-91
2023/01/18 10:31:26;;;;;;;18.52;14.48;;;;;;;;;;5095597;28;20046;-90
2023/01/18 10:33:55;;;;;;;22.17;16.13;;;;;;;;;;5095442;28;20047;-90
2023/01/18 10:36:26;;;;;;;20.30;15.23;;;;;;;;;;5095395;28;20051;-91
2023/01/18 10:38:54;;;;;;;19.08;14.65;;;;;;;;;;5095112;28;20105;-91
2023/01/18 10:41:26;;;;;;;20.20;14.20;;;;;;;;;;5095488;28;20070;-91
2023/01/18 10:43:54;;;;;;;22.23;15.00;;;;;;;;;;5095469;28;20052;-91
2023/01/18 10:46:21;;;;;;;26.52;13.82;;;;;;;;;;5093566;28;20086;-91
2023/01/18 10:48:49;;;;;;;24.05;16.48;;;;;;;;;;5095311;28;20044;-91
2023/01/18 10:51:31;;;;;;;18.55;13.90;;;;;;;;;;5095324;28;20056;-92
2023/01/18 10:53:58;;;;;;;19.98;15.18;;;;;;;;;;5095100;28;20044;-91
2023/01/18 10:56:26;;;;;;;20.73;13.23;;;;;;;;;;5095154;28;20127;-91
2023/01/18 10:58:57;;;;;;;20.73;15.07;;;;;;;;;;5094603;28;20051;-91
2023/01/18 11:01:26;;;;;;;20.63;14.48;;;;;;;;;;5095087;28;20054;-91
2023/01/18 11:04:14;;;;;;;21.20;14.18;;;;;;;;;;5094953;28;20139;-91
2023/01/18 11:06:49;;;;;;;29.50;22.30;;;;;;;;;;5078903;28;20048;-91
2023/01/18 11:09:35;;;;;;;15.60;12.10;;;;;;;;;;5095395;28;20048;-91
2023/01/18 11:12:37;;;;;;;23.80;16.20;;;;;;;;;;5094757;28;20069;-95
2023/01/18 11:15:13;;;;;;;19.35;13.20;;;;;;;;;;5091134;28;20046;-90
2023/01/18 11:17:44;;;;;;;24.52;15.98;;;;;;;;;;5093951;28;20058;-90
2023/01/18 11:20:16;;;;;;;18.20;13.00;;;;;;;;;;5094192;28;20044;-90
2023/01/18 11:22:53;;;;;;;20.90;12.30;;;;;;;;;;5093113;28;20488;-90
2023/01/18 11:25:21;;;;;;;40.42;25.73;;;;;;;;;;5092644;28;20048;-90
2023/01/18 11:27:48;;;;;;;32.75;21.30;;;;;;;;;;5094847;28;20060;-90
2023/01/18 11:30:22;;;;;;;17.75;11.50;;;;;;;;;;5093289;28;20483;-91
2023/01/18 11:32:53;;;;;;;17.17;13.02;;;;;;;;;;5094495;28;20048;-90
2023/01/18 11:35:27;;;;;;;23.35;12.70;;;;;;;;;;5094464;28;20490;-90
2023/01/18 11:37:58;;;;;;;20.63;13.45;;;;;;;;;;5095152;28;20071;-90
2023/01/18 11:40:27;;;;;;;21.15;12.13;;;;;;;;;;5095286;28;20055;-90
2023/01/18 11:43:02;;;;;;;46.72;30.83;;;;;;;;;;5094094;28;20044;-90
2023/01/18 11:45:49;;;;;;;14.20;10.85;;;;;;;;;;5093538;28;20606;-90
2023/01/18 11:48:33;;;;;;;25.95;18.63;;;;;;;;;;5095079;28;20050;-91
2023/01/18 11:51:06;;;;;;;25.67;15.25;;;;;;;;;;5093789;28;20056;-90
2023/01/18 11:53:42;;;;;;;19.48;11.15;;;;;;;;;;5094039;28;20130;-91
2023/01/18 11:56:28;;;;;;;51.88;31.80;;;;;;;;;;5093559;28;20550;-90
2023/01/18 11:58:56;;;;;;;16.55;11.52;;;;;;;;;;5093506;28;20052;-90
2023/01/18 12:01:38;;;;;;;15.05;10.35;;;;;;;;;;5093602;28;20044;-90
2023/01/18 12:04:13;;;;;;;13.68;10.57;;;;;;;;;;5095001;28;20048;-90
2023/01/18 12:07:02;;;;;;;51.20;24.00;;;;;;;;;;5094580;28;20047;-90
2023/01/18 12:09:32;;;;;;;55.05;23.85;;;;;;;;;;5093776;28;20130;-90
2023/01/18 12:12:29;;;;;;;303.70;103.07;;;;;;;;;;5093305;28;20047;-90
2023/01/18 12:15:15;;;;;;;26.77;12.95;;;;;;;;;;5085239;28;20056;-90
2023/01/18 12:17:54;;;;;;;185.38;69.82;;;;;;;;;;5093212;28;20056;-90
2023/01/18 12:21:08;;;;;;;76.30;32.60;;;;;;;;;;5093540;28;20048;-90
2023/01/18 12:23:52;;;;;;;335.33;114.10;;;;;;;;;;5089931;28;20048;-90
2023/01/18 12:26:25;;;;;;;250.57;89.05;;;;;;;;;;5093001;28;20051;-90
2023/01/18 12:29:10;;;;;;;106.25;43.28;;;;;;;;;;5094512;28;20050;-90
2023/01/18 12:31:37;;;;;;;230.30;84.70;;;;;;;;;;5093310;28;20056;-90
2023/01/18 12:34:04;;;;;;;28.77;16.90;;;;;;;;;;5093400;28;20056;-90
2023/01/18 12:36:48;;;;;;;18.98;10.23;;;;;;;;;;5092858;28;20052;-90
2023/01/18 12:39:23;;;;;;;62.80;27.38;;;;;;;;;;5092978;28;20055;-90
2023/01/18 12:41:56;;;;;;;29.67;15.85;;;;;;;;;;5094264;28;20040;-90
2023/01/18 12:44:56;;;;;;;22.23;13.75;;;;;;;;;;5093420;28;20048;-90
2023/01/18 12:47:33;;;;;;;12.23;9.45;;;;;;;;;;5082192;28;20059;-90
2023/01/18 12:50:27;;;;;;;14.95;9.50;;;;;;;;;;5093151;28;20097;-90
2023/01/18 12:52:57;;;;;;;13.93;8.25;;;;;;;;;;5090755;28;20044;-89
2023/01/18 12:55:25;;;;;;;18.50;8.95;;;;;;;;;;5092662;28;20054;-90
2023/01/18 12:57:54;;;;;;;10.50;7.53;;;;;;;;;;5092841;28;20055;-89
2023/01/18 13:00:27;;;;;;;10.20;7.72;;;;;;;;;;5093538;28;20047;-90
2023/01/18 13:02:56;;;;;;;17.83;8.20;;;;;;;;;;5092944;28;20476;-89
2023/01/18 13:05:49;;;;;;;13.45;6.60;;;;;;;;;;5092702;28;20044;-90
2023/01/18 13:08:22;;;;;;;13.07;6.53;;;;;;;;;;5092454;28;20106;-89
2023/01/18 13:10:50;;;;;;;11.40;7.05;;;;;;;;;;5092753;28;20054;-90
2023/01/18 13:13:28;;;;;;;32.85;17.33;;;;;;;;;;5093681;28;20127;-90
2023/01/18 13:16:09;;;;;;;16.25;7.90;;;;;;;;;;5092427;28;20059;-90
2023/01/18 13:18:41;;;;;;;15.45;7.00;;;;;;;;;;5092489;28;20051;-90
2023/01/18 13:21:11;;;;;;;18.00;8.32;;;;;;;;;;5094279;28;20059;-89
2023/01/18 13:23:44;;;;;;;15.15;6.38;;;;;;;;;;5092987;28;20070;-90
2023/01/18 13:26:21;;;;;;;13.00;6.28;;;;;;;;;;5092894;28;20048;-89
2023/01/18 13:28:48;;;;;;;12.95;5.75;;;;;;;;;;5092607;28;20052;-90
2023/01/18 13:31:15;;;;;;;9.32;6.10;;;;;;;;;;5092409;28;20048;-89
2023/01/18 13:33:44;;;;;;;9.95;4.85;;;;;;;;;;5092758;28;20066;-90
2023/01/18 13:36:13;;;;;;;19.10;6.35;;;;;;;;;;5092785;28;20052;-89
2023/01/18 13:38:51;;;;;;;28.38;8.48;;;;;;;;;;5092684;28;20052;-89
2023/01/18 13:41:23;;;;;;;10.65;4.93;;;;;;;;;;5092798;28;20407;-90
2023/01/18 13:43:50;;;;;;;12.43;5.25;;;;;;;;;;5092793;28;20048;-90
2023/01/18 13:46:19;;;;;;;14.35;5.13;;;;;;;;;;5092614;28;20056;-89
2023/01/18 13:48:55;;;;;;;11.63;5.45;;;;;;;;;;5096558;28;20072;-89
2023/01/18 13:51:40;;;;;;;10.27;4.70;;;;;;;;;;5096427;28;20481;-89
2023/01/18 13:54:09;;;;;;;9.43;4.57;;;;;;;;;;5096291;28;20047;-89
2023/01/18 13:56:36;;;;;;;13.07;5.38;;;;;;;;;;5096148;28;20055;-89
2023/01/18 13:59:19;;;;;;;10.65;4.55;;;;;;;;;;5095862;28;20058;-89
2023/01/18 14:01:47;;;;;;;7.43;4.25;;;;;;;;;;5096438;28;20385;-89
2023/01/18 14:04:15;;;;;;;4.70;3.65;;;;;;;;;;5096128;28;20052;-89
2023/01/18 14:06:43;;;;;;;13.90;5.57;;;;;;;;;;5095918;28;20048;-89
2023/01/18 14:09:13;;;;;;;6.03;3.90;;;;;;;;;;5096066;28;20044;-89
2023/01/18 14:11:44;;;;;;;5.93;4.03;;;;;;;;;;5096194;28;20044;-89
2023/01/18 14:14:13;;;;;;;5.20;3.60;;;;;;;;;;5095991;28;20506;-89
2023/01/18 14:16:53;;;;;;;8.52;3.80;;;;;;;;;;5095688;28;20056;-89
2023/01/18 14:19:21;;;;;;;6.57;4.13;;;;;;;;;;5095733;28;20052;-89
2023/01/18 14:21:56;;;;;;;19.83;4.63;;;;;;;;;;5095822;28;20052;-89
2023/01/18 14:24:32;;;;;;;9.45;3.75;;;;;;;;;;5095799;28;20048;-89
2023/01/18 14:26:59;;;;;;;12.07;4.10;;;;;;;;;;5095765;28;20055;-88
2023/01/18 14:29:38;;;;;;;5.05;3.30;;;;;;;;;;5095668;28;20058;-89
2023/01/18 14:32:07;;;;;;;12.57;4.68;;;;;;;;;;5095570;28;20048;-89
2023/01/18 14:34:39;;;;;;;8.57;3.35;;;;;;;;;;5095865;28;20135;-89
2023/01/18 14:37:33;;;;;;;23.20;5.85;;;;;;;;;;5095189;28;20048;-89
2023/01/18 14:40:00;;;;;;;;;;;;;;;;;;5093054;28;20070;-89
2023/01/18 14:42:27;;;;;;;4.43;3.13;;;;;;;;;;5095415;28;19920;-88
2023/01/18 14:44:54;;;;;;;6.88;3.53;;;;;;;;;;5095462;28;20058;-89
2023/01/18 14:47:28;;;;;;;11.77;4.90;;;;;;;;;;5095445;28;20040;-89
2023/01/18 14:49:55;;;;;;;13.60;4.97;;;;;;;;;;5095434;28;20139;-89
2023/01/18 14:52:26;;;;;;;13.68;7.63;;;;;;;;;;5094935;28;20051;-89
2023/01/18 14:54:54;;;;;;;12.52;5.65;;;;;;;;;;5095291;28;20052;-89
2023/01/18 14:57:22;;;;;;;9.38;5.70;;;;;;;;;;5094995;28;20072;-89
2023/01/18 15:00:07;;;;;;;8.25;3.97;;;;;;;;;;5095184;28;20411;-89
2023/01/18 15:02:37;;;;;;;9.85;4.20;;;;;;;;;;5095559;28;20059;-89
2023/01/18 15:05:15;;;;;;;8.65;4.63;;;;;;;;;;5104042;28;20063;-89
2023/01/18 15:07:44;;;;;;;7.50;3.38;;;;;;;;;;5095041;28;20393;-89
2023/01/18 15:10:15;;;;;;;11.52;4.32;;;;;;;;;;5095086;28;20051;-89
2023/01/18 15:12:44;;;;;;;6.53;3.60;;;;;;;;;;5094922;28;20048;-89
2023/01/18 15:15:17;;;;;;;6.40;4.55;;;;;;;;;;5094609;28;20052;-89
2023/01/18 15:17:44;;;;;;;6.88;3.83;;;;;;;;;;5094451;28;20062;-89